ADDS TAF Board (Experimental) INFO Settings
IDs: Format: Expanded Condensed

KDFW - Dallas-Ft Worth Intl, TX, US

Issued at 1140 UTC 28 May 2015
Updated at: 1402 UTC 28 May 2015
Time1353Z 28/15Z 28/16Z 28/17Z 28/18Z 28/19Z 28/20Z 28/21Z 28/22Z 28/23Z 29/00Z 29/01Z 29/02Z 29/03Z
Type OBS PRVL PRVL PRVL PRVL PRVL PRVL PRVL PRVL PRVL PRVL PRVL PRVL PRVL
VIS 10 >6 >6 >6 >6 >6 >6 >6 >6 >6 >6 >6 >6 >6
CIG 250 60 60 -- -- -- -- -- -- -- -- -- -- --
Cover BKN BKN BKN SCT SCT SCT SCT SCT SCT SCT SCT SCT SCT SCT
FltCat VFR VFR VFR VFR VFR VFR VFR VFR VFR VFR VFR VFR VFR VFR
WX -- VCSH VCSH -- -- -- -- -- -- -- -- -- -- --
WDir 200 170 170 170 170 170 170 170 170 170 170 170 170 170
WSpd 12 7 7 14 14 14 14 14 14 14 14 14 14 14
WGst -- -- -- -- -- -- -- -- -- -- -- -- -- --
R13/31
XWnd -11 -4 -4 -8 -8 -8 -8 -8 -8 -8 -8 -8 -8 -8
HWnd 5 6 6 11 11 11 11 11 11 11 11 11 11 11
R17/35
XWnd -4 1 1 2 2 2 2 2 2 2 2 2 2 2
HWnd 11 7 7 14 14 14 14 14 14 14 14 14 14 14
R18/36
XWnd -4 1 1 2 2 2 2 2 2 2 2 2 2 2
HWnd 11 7 7 14 14 14 14 14 14 14 14 14 14 14

NOTE: TEMPO conditions in [brackets]. Keep in mind TEMPO conditions might be better (lower impact) than prevailing conditions.

Raw TAF
KDFW 281140Z 2812/2918 17007KT P6SM VCSH BKN060
  FM281700 17014KT P6SM SCT050
  FM290500 18011KT P6SM VCTS BKN040CB
  FM291000 19010KT P6SM BKN050


Raw METAR
KDFW 281353Z 20012KT 10SM FEW015 SCT090 BKN250 24/21 A3007 RMK AO2 SLP174 T02390211
KDFW 281253Z 18010KT 10SM FEW013 FEW090 BKN250 22/21 A3004 RMK AO2 SLP164 T02220211
KDFW 281153Z 18009KT 10SM FEW015 FEW055 BKN250 22/21 A3002 RMK AO2 SLP158 T02170211 10233 20217 58001

METAR Board
Radar Display
Forecast Discussion

TAF Board Legend

Potential Impact
Threat None Slight Moderate High
Visibility (sm) ≥5.1 5.1>X≥3 3>X≥1 <1
Ceiling (100 ft) ≥30.1 30.1>X≥10 10>X≥5 <5
Wind Speed (kt) <10 10≤X<20 20≤X<30 ≥30
Wind Gust (kt) <15 15≤X<25 25≤X<35 ≥35
Weather No Wx Reported VCTS,-TS,-FZRA,SN TS,FZRA +TS,+FZRA,+SN